sensor_id;sensor_type;location;lat;lon;timestamp;P1;durP1;ratioP1;P2;durP2;ratioP2
78891;SDS011;68368;51.728;5.248;2024-02-21T00:01:15;9.80;;;4.40;;
78891;SDS011;68368;51.728;5.248;2024-02-21T00:03:19;8.20;;;4.50;;
78891;SDS011;68368;51.728;5.248;2024-02-21T00:05:22;10.00;;;4.60;;
78891;SDS011;68368;51.728;5.248;2024-02-21T00:07:25;7.70;;;4.30;;
78891;SDS011;68368;51.728;5.248;2024-02-21T00:09:28;8.30;;;3.80;;
78891;SDS011;68368;51.728;5.248;2024-02-21T00:11:31;7.60;;;3.70;;
78891;SDS011;68368;51.728;5.248;2024-02-21T00:13:37;6.20;;;3.60;;
78891;SDS011;68368;51.728;5.248;2024-02-21T00:15:41;9.90;;;4.10;;
78891;SDS011;68368;51.728;5.248;2024-02-21T00:17:44;7.90;;;3.50;;
78891;SDS011;68368;51.728;5.248;2024-02-21T00:19:47;10.90;;;3.60;;
78891;SDS011;68368;51.728;5.248;2024-02-21T00:21:52;10.80;;;3.50;;
78891;SDS011;68368;51.728;5.248;2024-02-21T00:23:56;6.30;;;3.70;;
78891;SDS011;68368;51.728;5.248;2024-02-21T00:26:01;7.30;;;2.90;;
78891;SDS011;68368;51.728;5.248;2024-02-21T00:28:08;6.40;;;3.30;;
78891;SDS011;68368;51.728;5.248;2024-02-21T00:30:13;7.00;;;3.00;;
78891;SDS011;68368;51.728;5.248;2024-02-21T00:32:17;9.60;;;3.90;;
78891;SDS011;68368;51.728;5.248;2024-02-21T00:34:29;8.40;;;3.50;;
78891;SDS011;68368;51.728;5.248;2024-02-21T00:36:32;8.60;;;3.50;;
78891;SDS011;68368;51.728;5.248;2024-02-21T00:38:35;6.90;;;3.50;;
78891;SDS011;68368;51.728;5.248;2024-02-21T00:40:39;8.10;;;3.80;;
78891;SDS011;68368;51.728;5.248;2024-02-21T00:42:45;7.60;;;3.70;;
78891;SDS011;68368;51.728;5.248;2024-02-21T00:44:48;9.20;;;3.90;;
78891;SDS011;68368;51.728;5.248;2024-02-21T00:46:51;8.90;;;3.80;;
78891;SDS011;68368;51.728;5.248;2024-02-21T00:49:00;8.40;;;3.90;;
78891;SDS011;68368;51.728;5.248;2024-02-21T00:51:04;12.40;;;4.50;;
78891;SDS011;68368;51.728;5.248;2024-02-21T00:53:10;8.10;;;4.20;;
78891;SDS011;68368;51.728;5.248;2024-02-21T00:55:12;8.70;;;4.30;;
78891;SDS011;68368;51.728;5.248;2024-02-21T00:57:15;9.30;;;4.50;;
78891;SDS011;68368;51.728;5.248;2024-02-21T00:59:22;12.50;;;4.90;;
78891;SDS011;68368;51.728;5.248;2024-02-21T01:01:25;9.70;;;4.60;;
78891;SDS011;68368;51.728;5.248;2024-02-21T01:03:28;15.60;;;6.50;;
78891;SDS011;68368;51.728;5.248;2024-02-21T01:05:32;9.50;;;5.20;;
78891;SDS011;68368;51.728;5.248;2024-02-21T01:07:34;10.40;;;4.80;;
78891;SDS011;68368;51.728;5.248;2024-02-21T01:09:37;11.50;;;5.80;;
78891;SDS011;68368;51.728;5.248;2024-02-21T01:11:40;12.00;;;6.40;;
78891;SDS011;68368;51.728;5.248;2024-02-21T01:13:43;17.50;;;7.90;;
78891;SDS011;68368;51.728;5.248;2024-02-21T01:15:46;14.50;;;5.90;;
78891;SDS011;68368;51.728;5.248;2024-02-21T01:17:49;12.00;;;6.20;;
78891;SDS011;68368;51.728;5.248;2024-02-21T01:19:52;12.50;;;5.90;;
78891;SDS011;68368;51.728;5.248;2024-02-21T01:21:56;13.50;;;6.40;;
78891;SDS011;68368;51.728;5.248;2024-02-21T01:23:59;13.40;;;5.90;;
78891;SDS011;68368;51.728;5.248;2024-02-21T01:26:02;12.30;;;5.90;;
78891;SDS011;68368;51.728;5.248;2024-02-21T01:28:06;13.60;;;5.80;;
78891;SDS011;68368;51.728;5.248;2024-02-21T01:30:13;14.70;;;6.60;;
78891;SDS011;68368;51.728;5.248;2024-02-21T01:32:19;15.20;;;5.70;;
78891;SDS011;68368;51.728;5.248;2024-02-21T01:34:22;15.50;;;6.80;;
78891;SDS011;68368;51.728;5.248;2024-02-21T01:36:25;14.50;;;6.30;;
78891;SDS011;68368;51.728;5.248;2024-02-21T01:38:30;12.00;;;6.20;;
78891;SDS011;68368;51.728;5.248;2024-02-21T01:40:34;13.90;;;6.30;;
78891;SDS011;68368;51.728;5.248;2024-02-21T01:42:39;13.70;;;6.40;;
78891;SDS011;68368;51.728;5.248;2024-02-21T01:44:45;16.80;;;8.40;;
78891;SDS011;68368;51.728;5.248;2024-02-21T01:46:48;14.60;;;7.20;;
78891;SDS011;68368;51.728;5.248;2024-02-21T01:48:54;14.10;;;6.70;;
78891;SDS011;68368;51.728;5.248;2024-02-21T01:51:02;9.70;;;6.20;;
78891;SDS011;68368;51.728;5.248;2024-02-21T01:53:07;19.50;;;7.60;;
78891;SDS011;68368;51.728;5.248;2024-02-21T01:55:16;15.60;;;6.80;;
78891;SDS011;68368;51.728;5.248;2024-02-21T01:57:19;12.30;;;5.70;;
78891;SDS011;68368;51.728;5.248;2024-02-21T01:59:22;12.20;;;7.70;;
78891;SDS011;68368;51.728;5.248;2024-02-21T02:01:26;13.00;;;6.40;;
78891;SDS011;68368;51.728;5.248;2024-02-21T02:03:29;14.80;;;6.70;;
78891;SDS011;68368;51.728;5.248;2024-02-21T02:05:33;14.30;;;6.60;;
78891;SDS011;68368;51.728;5.248;2024-02-21T02:07:36;16.10;;;6.80;;
78891;SDS011;68368;51.728;5.248;2024-02-21T02:09:39;16.20;;;6.20;;
78891;SDS011;68368;51.728;5.248;2024-02-21T02:11:43;18.80;;;6.30;;
78891;SDS011;68368;51.728;5.248;2024-02-21T02:13:46;14.90;;;6.00;;
78891;SDS011;68368;51.728;5.248;2024-02-21T02:15:49;11.20;;;5.20;;
78891;SDS011;68368;51.728;5.248;2024-02-21T02:17:53;12.20;;;5.90;;
78891;SDS011;68368;51.728;5.248;2024-02-21T02:19:56;17.10;;;7.10;;
78891;SDS011;68368;51.728;5.248;2024-02-21T02:22:02;11.70;;;5.60;;
78891;SDS011;68368;51.728;5.248;2024-02-21T02:24:11;13.90;;;6.50;;
78891;SDS011;68368;51.728;5.248;2024-02-21T02:26:15;11.30;;;5.00;;
78891;SDS011;68368;51.728;5.248;2024-02-21T02:28:18;11.30;;;5.70;;
78891;SDS011;68368;51.728;5.248;2024-02-21T02:30:23;12.20;;;5.30;;
78891;SDS011;68368;51.728;5.248;2024-02-21T02:32:28;14.00;;;5.60;;
78891;SDS011;68368;51.728;5.248;2024-02-21T02:34:34;12.10;;;5.40;;
78891;SDS011;68368;51.728;5.248;2024-02-21T02:36:39;13.60;;;5.00;;
78891;SDS011;68368;51.728;5.248;2024-02-21T02:38:42;12.20;;;5.10;;
78891;SDS011;68368;51.728;5.248;2024-02-21T02:40:45;10.50;;;5.50;;
78891;SDS011;68368;51.728;5.248;2024-02-21T02:42:48;13.20;;;5.10;;
78891;SDS011;68368;51.728;5.248;2024-02-21T02:44:52;15.70;;;4.80;;
78891;SDS011;68368;51.728;5.248;2024-02-21T02:46:55;14.10;;;5.10;;
78891;SDS011;68368;51.728;5.248;2024-02-21T02:48:59;10.60;;;4.80;;
78891;SDS011;68368;51.728;5.248;2024-02-21T02:51:01;9.40;;;4.40;;
78891;SDS011;68368;51.728;5.248;2024-02-21T02:53:05;12.40;;;4.80;;
78891;SDS011;68368;51.728;5.248;2024-02-21T02:55:09;11.20;;;4.30;;
78891;SDS011;68368;51.728;5.248;2024-02-21T02:57:12;9.60;;;4.40;;
78891;SDS011;68368;51.728;5.248;2024-02-21T02:59:15;11.50;;;4.40;;
78891;SDS011;68368;51.728;5.248;2024-02-21T03:01:18;10.60;;;4.60;;
78891;SDS011;68368;51.728;5.248;2024-02-21T03:03:21;11.50;;;4.90;;
78891;SDS011;68368;51.728;5.248;2024-02-21T03:05:25;14.00;;;4.60;;
78891;SDS011;68368;51.728;5.248;2024-02-21T03:07:28;13.70;;;4.70;;
78891;SDS011;68368;51.728;5.248;2024-02-21T03:09:31;13.10;;;5.20;;
78891;SDS011;68368;51.728;5.248;2024-02-21T03:11:35;9.50;;;4.50;;
78891;SDS011;68368;51.728;5.248;2024-02-21T03:13:38;11.70;;;4.20;;
78891;SDS011;68368;51.728;5.248;2024-02-21T03:15:41;9.90;;;4.30;;
78891;SDS011;68368;51.728;5.248;2024-02-21T03:17:44;10.70;;;4.30;;
78891;SDS011;68368;51.728;5.248;2024-02-21T03:19:48;11.10;;;4.90;;
78891;SDS011;68368;51.728;5.248;2024-02-21T03:21:52;8.90;;;4.30;;
78891;SDS011;68368;51.728;5.248;2024-02-21T03:23:55;11.80;;;3.90;;
78891;SDS011;68368;51.728;5.248;2024-02-21T03:25:59;9.00;;;4.40;;
78891;SDS011;68368;51.728;5.248;2024-02-21T03:28:02;8.70;;;3.70;;
78891;SDS011;68368;51.728;5.248;2024-02-21T03:30:07;13.80;;;5.30;;
78891;SDS011;68368;51.728;5.248;2024-02-21T03:32:11;12.80;;;4.30;;
78891;SDS011;68368;51.728;5.248;2024-02-21T03:34:13;12.30;;;4.20;;
78891;SDS011;68368;51.728;5.248;2024-02-21T03:36:17;9.10;;;4.00;;
78891;SDS011;68368;51.728;5.248;2024-02-21T03:38:20;7.20;;;4.10;;
78891;SDS011;68368;51.728;5.248;2024-02-21T03:40:31;9.10;;;3.40;;
78891;SDS011;68368;51.728;5.248;2024-02-21T03:42:34;11.90;;;4.10;;
78891;SDS011;68368;51.728;5.248;2024-02-21T03:44:45;9.10;;;3.90;;
78891;SDS011;68368;51.728;5.248;2024-02-21T03:46:48;9.80;;;3.90;;
78891;SDS011;68368;51.728;5.248;2024-02-21T03:48:51;10.70;;;4.30;;
78891;SDS011;68368;51.728;5.248;2024-02-21T03:50:54;7.20;;;3.60;;
78891;SDS011;68368;51.728;5.248;2024-02-21T03:52:58;9.90;;;4.00;;
78891;SDS011;68368;51.728;5.248;2024-02-21T03:55:08;12.30;;;4.00;;
78891;SDS011;68368;51.728;5.248;2024-02-21T03:57:15;12.70;;;4.10;;
78891;SDS011;68368;51.728;5.248;2024-02-21T03:59:18;7.70;;;3.40;;
78891;SDS011;68368;51.728;5.248;2024-02-21T04:01:21;11.50;;;4.30;;
78891;SDS011;68368;51.728;5.248;2024-02-21T04:03:27;10.30;;;4.00;;
78891;SDS011;68368;51.728;5.248;2024-02-21T04:05:31;8.80;;;3.50;;
78891;SDS011;68368;51.728;5.248;2024-02-21T04:07:34;10.30;;;4.20;;
78891;SDS011;68368;51.728;5.248;2024-02-21T04:09:37;10.80;;;4.20;;
78891;SDS011;68368;51.728;5.248;2024-02-21T04:11:40;10.30;;;4.60;;
78891;SDS011;68368;51.728;5.248;2024-02-21T04:13:43;12.00;;;4.50;;
78891;SDS011;68368;51.728;5.248;2024-02-21T04:15:48;14.30;;;5.10;;
78891;SDS011;68368;51.728;5.248;2024-02-21T04:17:51;13.70;;;4.60;;
78891;SDS011;68368;51.728;5.248;2024-02-21T04:20:00;10.60;;;5.70;;
78891;SDS011;68368;51.728;5.248;2024-02-21T04:22:05;10.90;;;4.70;;
78891;SDS011;68368;51.728;5.248;2024-02-21T04:24:08;12.30;;;5.10;;
78891;SDS011;68368;51.728;5.248;2024-02-21T04:26:11;9.40;;;5.10;;
78891;SDS011;68368;51.728;5.248;2024-02-21T04:28:14;10.60;;;4.90;;
78891;SDS011;68368;51.728;5.248;2024-02-21T04:30:18;13.60;;;6.50;;
78891;SDS011;68368;51.728;5.248;2024-02-21T04:32:22;12.70;;;5.60;;
78891;SDS011;68368;51.728;5.248;2024-02-21T04:34:25;9.70;;;5.40;;
78891;SDS011;68368;51.728;5.248;2024-02-21T04:36:27;11.70;;;5.20;;
78891;SDS011;68368;51.728;5.248;2024-02-21T04:38:31;14.40;;;6.10;;
78891;SDS011;68368;51.728;5.248;2024-02-21T04:40:34;14.50;;;5.70;;
78891;SDS011;68368;51.728;5.248;2024-02-21T04:42:42;12.70;;;5.70;;
78891;SDS011;68368;51.728;5.248;2024-02-21T04:44:45;13.80;;;6.20;;
78891;SDS011;68368;51.728;5.248;2024-02-21T04:46:51;8.30;;;4.40;;
78891;SDS011;68368;51.728;5.248;2024-02-21T04:48:54;17.30;;;6.70;;
78891;SDS011;68368;51.728;5.248;2024-02-21T04:50:57;12.60;;;6.00;;
78891;SDS011;68368;51.728;5.248;2024-02-21T04:53:00;16.80;;;6.50;;
78891;SDS011;68368;51.728;5.248;2024-02-21T04:55:03;14.00;;;6.20;;
78891;SDS011;68368;51.728;5.248;2024-02-21T04:57:08;12.80;;;6.10;;
78891;SDS011;68368;51.728;5.248;2024-02-21T04:59:11;14.00;;;6.50;;
78891;SDS011;68368;51.728;5.248;2024-02-21T05:01:16;14.80;;;6.70;;
78891;SDS011;68368;51.728;5.248;2024-02-21T05:03:19;12.50;;;6.20;;
78891;SDS011;68368;51.728;5.248;2024-02-21T05:05:22;12.50;;;6.70;;
78891;SDS011;68368;51.728;5.248;2024-02-21T05:07:26;16.50;;;6.40;;
78891;SDS011;68368;51.728;5.248;2024-02-21T05:09:29;13.40;;;6.80;;
78891;SDS011;68368;51.728;5.248;2024-02-21T05:11:32;14.80;;;6.50;;
78891;SDS011;68368;51.728;5.248;2024-02-21T05:13:39;12.30;;;6.80;;
78891;SDS011;68368;51.728;5.248;2024-02-21T05:15:43;16.10;;;7.10;;
78891;SDS011;68368;51.728;5.248;2024-02-21T05:17:47;13.00;;;6.30;;
78891;SDS011;68368;51.728;5.248;2024-02-21T05:19:50;16.50;;;7.40;;
78891;SDS011;68368;51.728;5.248;2024-02-21T05:21:53;14.20;;;7.40;;
78891;SDS011;68368;51.728;5.248;2024-02-21T05:23:56;11.40;;;5.60;;
78891;SDS011;68368;51.728;5.248;2024-02-21T05:25:59;13.60;;;6.20;;
78891;SDS011;68368;51.728;5.248;2024-02-21T05:28:05;13.40;;;6.80;;
78891;SDS011;68368;51.728;5.248;2024-02-21T05:30:09;13.30;;;6.40;;
78891;SDS011;68368;51.728;5.248;2024-02-21T05:32:16;14.40;;;6.80;;
78891;SDS011;68368;51.728;5.248;2024-02-21T05:34:19;13.80;;;5.70;;
78891;SDS011;68368;51.728;5.248;2024-02-21T05:36:23;13.10;;;6.90;;
78891;SDS011;68368;51.728;5.248;2024-02-21T05:38:26;14.90;;;6.40;;
78891;SDS011;68368;51.728;5.248;2024-02-21T05:40:29;13.50;;;6.40;;
78891;SDS011;68368;51.728;5.248;2024-02-21T05:42:32;14.50;;;6.40;;
78891;SDS011;68368;51.728;5.248;2024-02-21T05:44:36;11.40;;;5.70;;
78891;SDS011;68368;51.728;5.248;2024-02-21T05:46:39;11.30;;;5.90;;
78891;SDS011;68368;51.728;5.248;2024-02-21T05:48:43;10.50;;;5.20;;
78891;SDS011;68368;51.728;5.248;2024-02-21T05:50:47;11.80;;;5.40;;
78891;SDS011;68368;51.728;5.248;2024-02-21T05:52:53;14.60;;;5.50;;
78891;SDS011;68368;51.728;5.248;2024-02-21T05:54:58;17.10;;;6.70;;
78891;SDS011;68368;51.728;5.248;2024-02-21T16:37:22;6.90;;;2.80;;
78891;SDS011;68368;51.728;5.248;2024-02-21T16:39:25;5.50;;;2.90;;
78891;SDS011;68368;51.728;5.248;2024-02-21T16:41:28;5.40;;;2.80;;
78891;SDS011;68368;51.728;5.248;2024-02-21T16:43:32;6.60;;;2.70;;
78891;SDS011;68368;51.728;5.248;2024-02-21T16:45:35;5.30;;;2.70;;
78891;SDS011;68368;51.728;5.248;2024-02-21T16:47:39;6.30;;;3.00;;
78891;SDS011;68368;51.728;5.248;2024-02-21T16:49:42;6.40;;;3.10;;
78891;SDS011;68368;51.728;5.248;2024-02-21T16:51:45;4.00;;;2.80;;
78891;SDS011;68368;51.728;5.248;2024-02-21T16:53:48;7.60;;;3.60;;
78891;SDS011;68368;51.728;5.248;2024-02-21T16:55:51;6.10;;;2.80;;
78891;SDS011;68368;51.728;5.248;2024-02-21T16:57:54;4.10;;;2.50;;
78891;SDS011;68368;51.728;5.248;2024-02-21T16:59:59;6.00;;;2.80;;
78891;SDS011;68368;51.728;5.248;2024-02-21T17:02:02;6.40;;;3.40;;
78891;SDS011;68368;51.728;5.248;2024-02-21T17:04:08;7.20;;;3.30;;
78891;SDS011;68368;51.728;5.248;2024-02-21T17:06:13;6.50;;;3.10;;
78891;SDS011;68368;51.728;5.248;2024-02-21T17:08:16;7.30;;;3.00;;
78891;SDS011;68368;51.728;5.248;2024-02-21T17:10:21;7.20;;;2.50;;
78891;SDS011;68368;51.728;5.248;2024-02-21T17:12:24;6.40;;;3.20;;
78891;SDS011;68368;51.728;5.248;2024-02-21T17:14:27;5.70;;;3.00;;
78891;SDS011;68368;51.728;5.248;2024-02-21T17:16:30;5.40;;;2.70;;
78891;SDS011;68368;51.728;5.248;2024-02-21T17:18:33;4.50;;;2.60;;
78891;SDS011;68368;51.728;5.248;2024-02-21T17:20:36;5.70;;;2.90;;
78891;SDS011;68368;51.728;5.248;2024-02-21T17:22:39;6.70;;;2.50;;
78891;SDS011;68368;51.728;5.248;2024-02-21T17:24:43;4.90;;;3.00;;
78891;SDS011;68368;51.728;5.248;2024-02-21T17:26:45;4.70;;;2.80;;
78891;SDS011;68368;51.728;5.248;2024-02-21T17:28:49;6.10;;;3.00;;
78891;SDS011;68368;51.728;5.248;2024-02-21T17:30:52;6.00;;;3.00;;
78891;SDS011;68368;51.728;5.248;2024-02-21T17:32:55;6.50;;;3.10;;
78891;SDS011;68368;51.728;5.248;2024-02-21T17:34:59;10.00;;;4.40;;
78891;SDS011;68368;51.728;5.248;2024-02-21T17:37:02;7.20;;;3.30;;
78891;SDS011;68368;51.728;5.248;2024-02-21T17:39:05;5.50;;;3.30;;
78891;SDS011;68368;51.728;5.248;2024-02-21T17:41:08;6.30;;;3.30;;
78891;SDS011;68368;51.728;5.248;2024-02-21T17:43:11;4.80;;;2.90;;
78891;SDS011;68368;51.728;5.248;2024-02-21T17:45:15;5.50;;;2.90;;
78891;SDS011;68368;51.728;5.248;2024-02-21T17:47:18;7.60;;;3.00;;
78891;SDS011;68368;51.728;5.248;2024-02-21T17:49:21;6.00;;;3.00;;
78891;SDS011;68368;51.728;5.248;2024-02-21T17:51:24;8.70;;;3.30;;
78891;SDS011;68368;51.728;5.248;2024-02-21T17:53:27;7.00;;;3.90;;
78891;SDS011;68368;51.728;5.248;2024-02-21T17:55:31;6.40;;;3.00;;
78891;SDS011;68368;51.728;5.248;2024-02-21T17:57:33;5.60;;;3.20;;
78891;SDS011;68368;51.728;5.248;2024-02-21T17:59:39;4.80;;;3.10;;
78891;SDS011;68368;51.728;5.248;2024-02-21T18:01:42;7.70;;;3.20;;
78891;SDS011;68368;51.728;5.248;2024-02-21T18:03:45;7.40;;;3.60;;
78891;SDS011;68368;51.728;5.248;2024-02-21T18:05:48;4.80;;;3.00;;
78891;SDS011;68368;51.728;5.248;2024-02-21T18:07:51;5.60;;;3.20;;
78891;SDS011;68368;51.728;5.248;2024-02-21T18:09:54;6.10;;;3.50;;
78891;SDS011;68368;51.728;5.248;2024-02-21T18:11:57;6.20;;;3.10;;
78891;SDS011;68368;51.728;5.248;2024-02-21T18:14:00;6.00;;;2.70;;
78891;SDS011;68368;51.728;5.248;2024-02-21T18:16:07;5.40;;;3.20;;
78891;SDS011;68368;51.728;5.248;2024-02-21T18:18:10;5.90;;;3.60;;
78891;SDS011;68368;51.728;5.248;2024-02-21T18:20:12;5.30;;;3.70;;
78891;SDS011;68368;51.728;5.248;2024-02-21T18:22:16;5.20;;;3.00;;
78891;SDS011;68368;51.728;5.248;2024-02-21T18:24:18;5.70;;;3.30;;
78891;SDS011;68368;51.728;5.248;2024-02-21T18:26:24;4.60;;;3.50;;
78891;SDS011;68368;51.728;5.248;2024-02-21T18:28:29;6.40;;;3.60;;
78891;SDS011;68368;51.728;5.248;2024-02-21T18:30:32;4.60;;;3.00;;
78891;SDS011;68368;51.728;5.248;2024-02-21T18:32:38;7.70;;;3.70;;
78891;SDS011;68368;51.728;5.248;2024-02-21T18:34:41;5.40;;;3.60;;
78891;SDS011;68368;51.728;5.248;2024-02-21T18:36:44;5.00;;;2.90;;
78891;SDS011;68368;51.728;5.248;2024-02-21T18:38:47;8.50;;;4.40;;
78891;SDS011;68368;51.728;5.248;2024-02-21T18:40:50;5.70;;;3.70;;
78891;SDS011;68368;51.728;5.248;2024-02-21T18:42:53;5.40;;;3.30;;
78891;SDS011;68368;51.728;5.248;2024-02-21T18:44:56;6.00;;;3.80;;
78891;SDS011;68368;51.728;5.248;2024-02-21T18:46:58;5.40;;;3.50;;
78891;SDS011;68368;51.728;5.248;2024-02-21T18:49:01;5.30;;;3.20;;
78891;SDS011;68368;51.728;5.248;2024-02-21T18:51:05;5.50;;;3.50;;
78891;SDS011;68368;51.728;5.248;2024-02-21T18:53:10;4.70;;;3.30;;
78891;SDS011;68368;51.728;5.248;2024-02-21T18:55:13;6.40;;;3.20;;
78891;SDS011;68368;51.728;5.248;2024-02-21T18:57:17;5.00;;;2.90;;
78891;SDS011;68368;51.728;5.248;2024-02-21T18:59:21;6.30;;;3.50;;
78891;SDS011;68368;51.728;5.248;2024-02-21T19:01:25;5.00;;;3.20;;
78891;SDS011;68368;51.728;5.248;2024-02-21T19:03:32;7.10;;;3.40;;
78891;SDS011;68368;51.728;5.248;2024-02-21T19:05:35;4.80;;;3.10;;
78891;SDS011;68368;51.728;5.248;2024-02-21T19:07:39;5.80;;;3.40;;
78891;SDS011;68368;51.728;5.248;2024-02-21T19:09:43;7.00;;;3.30;;
78891;SDS011;68368;51.728;5.248;2024-02-21T19:11:46;4.50;;;2.80;;
78891;SDS011;68368;51.728;5.248;2024-02-21T19:13:49;5.90;;;3.70;;
78891;SDS011;68368;51.728;5.248;2024-02-21T19:15:53;4.30;;;3.00;;
78891;SDS011;68368;51.728;5.248;2024-02-21T19:17:55;5.90;;;3.20;;
78891;SDS011;68368;51.728;5.248;2024-02-21T19:19:58;5.90;;;3.60;;
78891;SDS011;68368;51.728;5.248;2024-02-21T19:22:02;5.00;;;2.90;;
78891;SDS011;68368;51.728;5.248;2024-02-21T19:24:05;5.60;;;3.20;;
78891;SDS011;68368;51.728;5.248;2024-02-21T19:26:09;7.60;;;3.10;;
78891;SDS011;68368;51.728;5.248;2024-02-21T19:28:13;5.00;;;3.00;;
78891;SDS011;68368;51.728;5.248;2024-02-21T19:30:17;5.60;;;3.60;;
78891;SDS011;68368;51.728;5.248;2024-02-21T19:32:20;5.40;;;3.00;;
78891;SDS011;68368;51.728;5.248;2024-02-21T19:34:24;4.40;;;2.90;;
78891;SDS011;68368;51.728;5.248;2024-02-21T19:36:28;5.00;;;3.30;;
78891;SDS011;68368;51.728;5.248;2024-02-21T19:38:31;4.50;;;3.00;;
78891;SDS011;68368;51.728;5.248;2024-02-21T19:40:35;5.30;;;3.70;;
78891;SDS011;68368;51.728;5.248;2024-02-21T19:42:38;5.30;;;3.20;;
78891;SDS011;68368;51.728;5.248;2024-02-21T19:44:41;5.10;;;3.20;;
78891;SDS011;68368;51.728;5.248;2024-02-21T19:46:44;4.60;;;3.20;;
78891;SDS011;68368;51.728;5.248;2024-02-21T19:48:47;6.30;;;3.70;;
78891;SDS011;68368;51.728;5.248;2024-02-21T19:50:50;4.40;;;3.10;;
78891;SDS011;68368;51.728;5.248;2024-02-21T19:52:56;4.20;;;3.10;;
78891;SDS011;68368;51.728;5.248;2024-02-21T19:54:59;4.90;;;3.10;;
78891;SDS011;68368;51.728;5.248;2024-02-21T19:57:02;3.60;;;2.90;;
78891;SDS011;68368;51.728;5.248;2024-02-21T19:59:06;4.50;;;2.70;;
78891;SDS011;68368;51.728;5.248;2024-02-21T20:01:12;3.30;;;2.50;;
78891;SDS011;68368;51.728;5.248;2024-02-21T20:03:17;5.20;;;3.50;;
78891;SDS011;68368;51.728;5.248;2024-02-21T20:05:20;4.50;;;2.70;;
78891;SDS011;68368;51.728;5.248;2024-02-21T20:07:23;5.40;;;3.10;;
78891;SDS011;68368;51.728;5.248;2024-02-21T20:09:26;3.70;;;2.80;;
78891;SDS011;68368;51.728;5.248;2024-02-21T20:11:29;4.30;;;3.10;;
78891;SDS011;68368;51.728;5.248;2024-02-21T20:13:34;5.10;;;2.30;;
78891;SDS011;68368;51.728;5.248;2024-02-21T20:15:37;4.20;;;2.60;;
78891;SDS011;68368;51.728;5.248;2024-02-21T20:17:41;4.20;;;2.70;;
78891;SDS011;68368;51.728;5.248;2024-02-21T20:19:44;3.80;;;2.30;;
78891;SDS011;68368;51.728;5.248;2024-02-21T20:21:47;3.80;;;2.60;;
78891;SDS011;68368;51.728;5.248;2024-02-21T20:23:53;3.70;;;2.70;;
78891;SDS011;68368;51.728;5.248;2024-02-21T20:25:57;4.30;;;2.60;;
78891;SDS011;68368;51.728;5.248;2024-02-21T20:28:00;3.60;;;2.70;;
78891;SDS011;68368;51.728;5.248;2024-02-21T20:30:05;3.40;;;2.40;;
78891;SDS011;68368;51.728;5.248;2024-02-21T20:32:09;3.90;;;2.60;;
78891;SDS011;68368;51.728;5.248;2024-02-21T20:34:14;3.70;;;2.80;;
78891;SDS011;68368;51.728;5.248;2024-02-21T20:36:19;3.50;;;2.50;;
78891;SDS011;68368;51.728;5.248;2024-02-21T20:38:25;3.80;;;2.30;;
78891;SDS011;68368;51.728;5.248;2024-02-21T20:40:28;3.20;;;2.30;;
78891;SDS011;68368;51.728;5.248;2024-02-21T20:42:38;4.00;;;3.00;;
78891;SDS011;68368;51.728;5.248;2024-02-21T20:44:41;3.60;;;2.40;;
78891;SDS011;68368;51.728;5.248;2024-02-21T20:46:44;3.70;;;2.10;;
78891;SDS011;68368;51.728;5.248;2024-02-21T20:48:47;3.40;;;2.30;;
78891;SDS011;68368;51.728;5.248;2024-02-21T20:50:50;3.60;;;2.40;;
78891;SDS011;68368;51.728;5.248;2024-02-21T20:52:54;4.40;;;2.20;;
78891;SDS011;68368;51.728;5.248;2024-02-21T20:54:58;2.60;;;1.80;;
78891;SDS011;68368;51.728;5.248;2024-02-21T20:57:01;2.70;;;1.90;;
78891;SDS011;68368;51.728;5.248;2024-02-21T20:59:06;3.10;;;2.10;;
78891;SDS011;68368;51.728;5.248;2024-02-21T21:01:10;3.50;;;2.00;;
78891;SDS011;68368;51.728;5.248;2024-02-21T21:03:13;3.80;;;2.30;;
78891;SDS011;68368;51.728;5.248;2024-02-21T21:05:17;2.70;;;2.00;;
78891;SDS011;68368;51.728;5.248;2024-02-21T21:07:23;2.20;;;1.90;;
78891;SDS011;68368;51.728;5.248;2024-02-21T21:09:26;3.10;;;1.90;;
78891;SDS011;68368;51.728;5.248;2024-02-21T21:11:29;3.40;;;2.10;;
78891;SDS011;68368;51.728;5.248;2024-02-21T21:13:35;4.20;;;2.40;;
78891;SDS011;68368;51.728;5.248;2024-02-21T21:15:38;3.90;;;2.00;;
78891;SDS011;68368;51.728;5.248;2024-02-21T21:17:41;3.20;;;1.90;;
78891;SDS011;68368;51.728;5.248;2024-02-21T21:19:44;3.10;;;2.10;;
78891;SDS011;68368;51.728;5.248;2024-02-21T21:21:47;3.00;;;1.80;;
78891;SDS011;68368;51.728;5.248;2024-02-21T21:23:50;3.60;;;2.10;;
78891;SDS011;68368;51.728;5.248;2024-02-21T21:25:53;2.00;;;1.80;;
78891;SDS011;68368;51.728;5.248;2024-02-21T21:27:56;2.60;;;1.90;;
78891;SDS011;68368;51.728;5.248;2024-02-21T21:29:59;2.60;;;2.00;;
78891;SDS011;68368;51.728;5.248;2024-02-21T21:32:05;2.80;;;1.90;;
78891;SDS011;68368;51.728;5.248;2024-02-21T21:34:09;2.50;;;1.90;;
78891;SDS011;68368;51.728;5.248;2024-02-21T21:36:15;2.50;;;1.60;;
78891;SDS011;68368;51.728;5.248;2024-02-21T21:38:48;2.50;;;1.80;;
78891;SDS011;68368;51.728;5.248;2024-02-21T21:44:13;3.10;;;2.00;;
78891;SDS011;68368;51.728;5.248;2024-02-21T21:46:52;2.60;;;1.60;;
78891;SDS011;68368;51.728;5.248;2024-02-21T21:49:07;3.00;;;2.00;;
78891;SDS011;68368;51.728;5.248;2024-02-21T21:51:17;2.60;;;2.00;;
78891;SDS011;68368;51.728;5.248;2024-02-21T21:53:26;2.50;;;2.00;;
78891;SDS011;68368;51.728;5.248;2024-02-21T21:55:42;2.30;;;2.00;;
78891;SDS011;68368;51.728;5.248;2024-02-21T21:57:51;2.80;;;2.10;;
78891;SDS011;68368;51.728;5.248;2024-02-21T21:59:56;2.70;;;2.40;;
78891;SDS011;68368;51.728;5.248;2024-02-21T22:02:06;2.20;;;1.90;;
78891;SDS011;68368;51.728;5.248;2024-02-21T22:04:09;2.70;;;2.40;;
78891;SDS011;68368;51.728;5.248;2024-02-21T22:06:12;3.20;;;2.90;;
78891;SDS011;68368;51.728;5.248;2024-02-21T22:08:15;3.40;;;2.70;;
78891;SDS011;68368;51.728;5.248;2024-02-21T22:10:18;3.30;;;3.00;;
78891;SDS011;68368;51.728;5.248;2024-02-21T22:12:21;3.50;;;3.00;;
78891;SDS011;68368;51.728;5.248;2024-02-21T22:14:32;3.30;;;3.00;;
78891;SDS011;68368;51.728;5.248;2024-02-21T22:16:34;3.20;;;2.70;;
78891;SDS011;68368;51.728;5.248;2024-02-21T22:18:37;3.00;;;2.70;;
78891;SDS011;68368;51.728;5.248;2024-02-21T22:20:42;3.70;;;3.40;;
78891;SDS011;68368;51.728;5.248;2024-02-21T22:22:46;3.30;;;3.00;;
78891;SDS011;68368;51.728;5.248;2024-02-21T22:24:49;3.90;;;3.10;;
78891;SDS011;68368;51.728;5.248;2024-02-21T22:26:52;3.30;;;3.00;;
78891;SDS011;68368;51.728;5.248;2024-02-21T22:28:55;3.40;;;3.10;;
78891;SDS011;68368;51.728;5.248;2024-02-21T22:30:58;4.10;;;3.70;;
78891;SDS011;68368;51.728;5.248;2024-02-21T22:33:01;4.10;;;2.80;;
78891;SDS011;68368;51.728;5.248;2024-02-21T22:35:05;3.80;;;3.50;;
78891;SDS011;68368;51.728;5.248;2024-02-21T22:37:09;3.50;;;3.20;;
78891;SDS011;68368;51.728;5.248;2024-02-21T22:39:11;3.60;;;3.20;;
78891;SDS011;68368;51.728;5.248;2024-02-21T22:41:16;3.60;;;3.30;;
78891;SDS011;68368;51.728;5.248;2024-02-21T22:43:19;3.70;;;3.40;;
78891;SDS011;68368;51.728;5.248;2024-02-21T22:45:22;3.40;;;3.10;;
78891;SDS011;68368;51.728;5.248;2024-02-21T22:47:25;4.30;;;3.90;;
78891;SDS011;68368;51.728;5.248;2024-02-21T22:49:27;3.50;;;3.20;;
78891;SDS011;68368;51.728;5.248;2024-02-21T22:51:31;3.50;;;3.20;;
78891;SDS011;68368;51.728;5.248;2024-02-21T22:53:34;4.50;;;3.80;;
78891;SDS011;68368;51.728;5.248;2024-02-21T22:55:39;4.00;;;3.60;;
78891;SDS011;68368;51.728;5.248;2024-02-21T22:57:42;3.90;;;3.60;;
78891;SDS011;68368;51.728;5.248;2024-02-21T22:59:45;3.60;;;3.30;;
78891;SDS011;68368;51.728;5.248;2024-02-21T23:01:48;3.70;;;3.30;;
78891;SDS011;68368;51.728;5.248;2024-02-21T23:03:51;3.50;;;3.20;;
78891;SDS011;68368;51.728;5.248;2024-02-21T23:05:54;3.80;;;3.40;;
78891;SDS011;68368;51.728;5.248;2024-02-21T23:07:57;3.80;;;3.40;;